Time;durP1;ratioP1;P1;durP2;ratioP2;P2;SDS_P1;SDS_P2;PMS_P1;PMS_P2;Temp;Humidity;BMP_temperature;BMP_pressure;BME280_temperature;BME280_humidity;BME280_pressure;Samples;Min_cycle;Max_cycle;Signal;HPM_P1;HPM_P2
2022/10/19 00:01:11;;;;;;;7.43;1.70;;;9.90;99.90;;;;;;5072459;28;20048;-83
2022/10/19 00:03:37;;;;;;;4.38;1.48;;;9.80;99.90;;;;;;5072529;28;20056;-81
2022/10/19 00:06:13;;;;;;;5.30;1.10;;;10.40;99.90;;;;;;5073182;28;20041;-81
2022/10/19 00:08:38;;;;;;;4.50;2.13;;;9.80;99.90;;;;;;5073848;28;20045;-81
2022/10/19 00:11:04;;;;;;;5.30;1.35;;;9.70;99.90;;;;;;5073489;28;20393;-81
2022/10/19 00:13:30;;;;;;;7.75;1.40;;;9.60;99.90;;;;;;5074972;28;20135;-81
2022/10/19 00:15:55;;;;;;;4.57;1.50;;;9.60;99.90;;;;;;5077730;28;20078;-80
2022/10/19 00:18:21;;;;;;;4.97;1.58;;;9.50;99.90;;;;;;5077005;28;20047;-81
2022/10/19 00:20:47;;;;;;;5.18;1.30;;;9.50;99.90;;;;;;5077191;28;20170;-82
2022/10/19 00:23:12;;;;;;;6.30;1.30;;;9.50;99.90;;;;;;5077235;28;20059;-82
2022/10/19 00:25:38;;;;;;;3.78;1.50;;;9.40;99.90;;;;;;5077690;28;20137;-81
2022/10/19 00:28:03;;;;;;;4.55;1.27;;;9.30;99.90;;;;;;5077227;28;20384;-82
2022/10/19 00:30:29;;;;;;;3.25;1.20;;;9.30;99.90;;;;;;5078534;28;20052;-82
2022/10/19 00:32:55;;;;;;;3.30;1.38;;;9.20;99.90;;;;;;5080144;28;20052;-81
2022/10/19 00:35:20;;;;;;;3.15;1.35;;;9.20;99.90;;;;;;5076177;28;20124;-80
2022/10/19 00:37:46;;;;;;;5.70;1.25;;;9.20;99.90;;;;;;5076874;28;20044;-81
2022/10/19 00:40:12;;;;;;;6.90;1.30;;;9.10;99.90;;;;;;5077004;28;20049;-80
2022/10/19 00:42:38;;;;;;;6.47;1.40;;;9.00;99.90;;;;;;5076957;28;20041;-80
2022/10/19 00:45:12;;;;;;;5.93;1.40;;;9.00;99.90;;;;;;5075984;28;20481;-80
2022/10/19 00:47:39;;;;;;;5.20;1.30;;;8.90;99.90;;;;;;5076138;28;20366;-81
2022/10/19 00:50:05;;;;;;;4.60;1.43;;;8.90;99.90;;;;;;5075590;28;20044;-82
2022/10/19 00:52:31;;;;;;;6.10;1.63;;;8.90;99.90;;;;;;5075490;28;20286;-81
2022/10/19 00:54:57;;;;;;;3.90;1.42;;;8.90;99.90;;;;;;5076716;28;20537;-81
2022/10/19 00:57:27;;;;;;;3.08;1.17;;;8.80;99.90;;;;;;5076879;28;20045;-83
2022/10/19 00:59:53;;;;;;;4.32;1.35;;;8.80;99.90;;;;;;5075355;28;20048;-81
2022/10/19 01:02:19;;;;;;;5.03;1.25;;;8.80;99.90;;;;;;5076547;28;20040;-80
2022/10/19 01:04:50;;;;;;;6.03;1.42;;;8.80;99.90;;;;;;5076469;28;20048;-82
2022/10/19 01:07:16;;;;;;;3.17;1.35;;;9.30;99.90;;;;;;5076227;28;20044;-80
2022/10/19 01:09:42;;;;;;;10.20;1.63;;;9.10;99.90;;;;;;5076757;28;20442;-83
2022/10/19 01:12:19;;;;;;;3.47;1.33;;;8.80;99.90;;;;;;5076377;28;20120;-80
2022/10/19 01:15:04;;;;;;;6.22;1.58;;;8.80;99.90;;;;;;5076369;28;20074;-80
2022/10/19 01:17:32;;;;;;;5.90;1.75;;;8.80;99.90;;;;;;5074983;28;20403;-81
2022/10/19 01:20:31;;;;;;;6.15;1.58;;;8.70;99.90;;;;;;5076217;28;20043;-81
2022/10/19 01:23:10;;;;;;;3.10;1.45;;;8.70;99.90;;;;;;5076001;28;20040;-81
2022/10/19 01:26:03;;;;;;;6.30;1.50;;;8.70;99.90;;;;;;5074285;28;20037;-81
2022/10/19 01:28:33;;;;;;;4.90;1.38;;;9.00;99.90;;;;;;5074880;28;20115;-82
2022/10/19 01:31:30;;;;;;;7.60;1.85;;;9.10;99.90;;;;;;5077416;28;20480;-80
2022/10/19 01:34:23;;;;;;;3.38;1.30;;;8.70;99.90;;;;;;5076523;28;20063;-80
2022/10/19 01:37:10;;;;;;;3.55;1.70;;;8.80;99.90;;;;;;5075964;28;20044;-82
2022/10/19 01:39:59;;;;;;;21.02;2.75;;;8.80;99.90;;;;;;5076221;28;20053;-83
2022/10/19 01:42:40;;;;;;;5.45;1.50;;;8.90;99.90;;;;;;5070457;28;20531;-83
2022/10/19 01:45:16;;;;;;;6.07;1.50;;;8.90;99.90;;;;;;5075651;28;20052;-80
2022/10/19 01:47:53;;;;;;;4.20;1.40;;;8.90;99.90;;;;;;5075702;28;20091;-81
2022/10/19 01:50:35;;;;;;;6.75;1.38;;;9.00;99.90;;;;;;5075411;28;20488;-80
2022/10/19 01:53:04;;;;;;;4.68;1.50;;;9.00;99.90;;;;;;5075257;28;20374;-83
2022/10/19 01:55:31;;;;;;;6.57;1.40;;;9.00;99.90;;;;;;5075577;28;20087;-83
2022/10/19 01:58:04;;;;;;;2.92;1.25;;;9.10;99.90;;;;;;5074279;28;20037;-82
2022/10/19 02:00:33;;;;;;;9.00;1.65;;;9.10;99.90;;;;;;5075393;28;20549;-81
2022/10/19 02:03:00;;;;;;;8.35;1.77;;;9.10;99.90;;;;;;5075463;28;20050;-81
2022/10/19 02:05:32;;;;;;;4.85;1.80;;;9.10;99.90;;;;;;5075335;28;20140;-83
2022/10/19 02:08:01;;;;;;;2.40;1.40;;;9.20;99.90;;;;;;5075269;28;20500;-82
2022/10/19 02:10:28;;;;;;;5.20;1.75;;;9.20;99.90;;;;;;5075251;28;20040;-81
2022/10/19 02:12:54;;;;;;;;;;;9.20;99.90;;;;;;5075674;28;20036;-82
2022/10/19 02:15:24;;;;;;;5.95;1.63;;;9.30;99.90;;;;;;5075366;28;19927;-82
2022/10/19 02:17:55;;;;;;;6.40;1.75;;;9.20;99.90;;;;;;5074529;28;20155;-82
2022/10/19 02:20:21;;;;;;;5.60;1.77;;;9.90;99.90;;;;;;5058830;28;20135;-81
2022/10/19 02:22:47;;;;;;;5.10;1.90;;;9.30;99.90;;;;;;5075031;28;20051;-83
2022/10/19 02:25:13;;;;;;;3.42;1.95;;;9.20;99.90;;;;;;5074809;28;20044;-81
2022/10/19 02:27:43;;;;;;;7.43;2.05;;;9.30;99.90;;;;;;5074993;28;20369;-81
2022/10/19 02:30:11;;;;;;;7.13;1.92;;;9.40;99.90;;;;;;5073640;28;20044;-81
2022/10/19 02:32:37;;;;;;;6.00;2.05;;;9.30;99.90;;;;;;5074944;28;20044;-82
2022/10/19 02:35:04;;;;;;;6.40;2.15;;;9.40;99.90;;;;;;5059580;28;20450;-82
2022/10/19 02:37:29;;;;;;;3.58;1.80;;;9.40;99.90;;;;;;5072748;28;20045;-81
2022/10/19 02:39:55;;;;;;;6.72;1.92;;;9.40;99.90;;;;;;5074735;28;20067;-82
2022/10/19 02:42:33;;;;;;;5.00;2.28;;;9.40;99.90;;;;;;5074271;28;20480;-80
2022/10/19 02:45:25;;;;;;;7.40;1.70;;;8.80;99.90;;;;;;5074499;28;20088;-80
2022/10/19 02:48:01;;;;;;;3.97;1.95;;;9.40;99.90;;;;;;5071978;28;20559;-82
2022/10/19 02:50:27;;;;;;;4.35;1.88;;;9.40;99.90;;;;;;5074506;28;20102;-83
2022/10/19 02:52:52;;;;;;;9.27;1.85;;;9.40;99.90;;;;;;5073478;28;20041;-82
2022/10/19 02:55:18;;;;;;;6.55;1.98;;;9.40;99.90;;;;;;5074408;28;20044;-83
2022/10/19 02:57:44;;;;;;;3.75;1.90;;;9.40;99.90;;;;;;5074344;28;20044;-82
2022/10/19 03:00:10;;;;;;;4.07;1.73;;;9.40;99.90;;;;;;5056245;28;20052;-83
2022/10/19 03:02:35;;;;;;;3.47;1.65;;;9.40;99.90;;;;;;5073315;28;20102;-82
2022/10/19 03:05:02;;;;;;;8.90;2.00;;;9.40;99.90;;;;;;5074210;28;20044;-82
2022/10/19 03:07:27;;;;;;;6.38;2.08;;;9.40;99.90;;;;;;5074196;28;20476;-81
2022/10/19 03:09:53;;;;;;;5.93;2.10;;;9.40;99.90;;;;;;5074029;28;20052;-83
2022/10/19 03:12:18;;;;;;;9.65;2.35;;;9.60;99.90;;;;;;5072895;28;20476;-81
2022/10/19 03:14:44;;;;;;;3.50;1.65;;;9.40;99.90;;;;;;5072823;28;20068;-82
2022/10/19 03:17:10;;;;;;;9.88;2.03;;;9.40;99.90;;;;;;5074007;28;20037;-80
2022/10/19 03:19:36;;;;;;;6.05;1.88;;;9.20;99.90;;;;;;5074039;28;20528;-81
2022/10/19 03:22:01;;;;;;;8.73;1.83;;;10.10;99.90;;;;;;5073003;28;20045;-80
2022/10/19 03:24:29;;;;;;;6.93;1.63;;;9.50;99.90;;;;;;5073966;28;20045;-81
2022/10/19 03:26:55;;;;;;;4.60;1.60;;;9.40;99.90;;;;;;5073830;28;20131;-82
2022/10/19 03:29:20;;;;;;;4.40;2.00;;;9.50;99.90;;;;;;5074366;28;20143;-80
2022/10/19 03:31:46;;;;;;;4.30;1.70;;;9.40;99.90;;;;;;5073937;28;20434;-82
2022/10/19 03:34:11;;;;;;;8.13;3.15;;;9.60;99.90;;;;;;5075269;28;20082;-81
2022/10/19 03:36:39;;;;;;;5.70;1.65;;;9.40;99.90;;;;;;5074990;28;20041;-81
2022/10/19 03:39:10;;;;;;;6.85;2.13;;;9.40;99.90;;;;;;5072718;28;20046;-82
2022/10/19 03:41:37;;;;;;;5.05;1.77;;;9.30;99.90;;;;;;5073798;28;20044;-82
2022/10/19 03:44:03;;;;;;;6.70;2.05;;;9.30;99.90;;;;;;5072847;28;20043;-81
2022/10/19 03:46:29;;;;;;;6.00;1.70;;;9.20;99.90;;;;;;5072209;28;20110;-81
2022/10/19 03:48:55;;;;;;;4.38;1.65;;;9.20;99.90;;;;;;5072209;28;20085;-81
2022/10/19 03:51:23;;;;;;;3.78;1.75;;;9.20;99.90;;;;;;5073430;28;20049;-81
2022/10/19 03:53:58;;;;;;;7.68;1.92;;;9.70;99.90;;;;;;5073395;28;20044;-83
2022/10/19 03:56:26;;;;;;;9.20;1.90;;;9.10;99.90;;;;;;5055931;28;20449;-82
2022/10/19 03:58:54;;;;;;;6.03;1.67;;;9.10;99.90;;;;;;5073542;28;20052;-83
2022/10/19 04:01:23;;;;;;;5.10;1.83;;;9.00;99.90;;;;;;5072712;28;20044;-81
2022/10/19 04:03:54;;;;;;;4.40;2.00;;;9.00;99.90;;;;;;5073358;28;20074;-81
2022/10/19 04:06:25;;;;;;;4.70;1.80;;;9.00;99.90;;;;;;5073470;28;20133;-81
2022/10/19 04:08:52;;;;;;;6.65;1.95;;;9.00;99.90;;;;;;5055707;28;20396;-81
2022/10/19 04:11:20;;;;;;;6.10;1.80;;;8.90;99.90;;;;;;5072736;28;20071;-81
2022/10/19 04:13:50;;;;;;;4.95;1.67;;;9.00;99.90;;;;;;5055460;28;20419;-82
2022/10/19 04:16:18;;;;;;;5.97;1.70;;;8.90;99.90;;;;;;5073436;28;20412;-81
2022/10/19 04:18:43;;;;;;;6.43;1.83;;;8.90;99.90;;;;;;5073295;28;20048;-83
2022/10/19 04:21:31;;;;;;;6.38;1.60;;;9.40;99.90;;;;;;5073313;28;20040;-81
2022/10/19 04:24:00;;;;;;;6.13;1.50;;;8.90;99.90;;;;;;5073883;28;20103;-81
2022/10/19 04:26:26;;;;;;;5.13;1.90;;;8.90;99.90;;;;;;5073308;28;20131;-83
2022/10/19 04:28:52;;;;;;;3.88;1.85;;;8.90;99.90;;;;;;5072495;28;20525;-82
2022/10/19 04:31:17;;;;;;;2.80;1.50;;;9.10;99.90;;;;;;5073525;28;20073;-81
2022/10/19 04:33:43;;;;;;;5.47;1.98;;;9.00;99.90;;;;;;5073130;28;20396;-81
2022/10/19 04:36:10;;;;;;;9.07;1.83;;;8.90;99.90;;;;;;5077668;28;20049;-80
2022/10/19 04:38:36;;;;;;;4.88;1.80;;;8.90;99.90;;;;;;5073407;28;20091;-82
2022/10/19 04:41:04;;;;;;;5.70;2.00;;;8.90;99.90;;;;;;5073307;28;20377;-80
2022/10/19 04:43:30;;;;;;;3.13;1.73;;;8.90;99.90;;;;;;5072207;28;20106;-82
2022/10/19 04:45:56;;;;;;;3.20;1.83;;;8.90;99.90;;;;;;5073508;28;20396;-83
2022/10/19 04:48:22;;;;;;;6.80;1.75;;;8.90;99.90;;;;;;5073007;28;20041;-82
2022/10/19 04:50:47;;;;;;;7.95;2.08;;;8.90;99.90;;;;;;5073008;28;20045;-82
2022/10/19 04:53:13;;;;;;;4.18;1.50;;;8.90;99.90;;;;;;5072325;28;20045;-82
2022/10/19 04:55:42;;;;;;;9.90;1.80;;;9.30;99.90;;;;;;5055653;28;20055;-80
2022/10/19 04:58:08;;;;;;;3.33;1.65;;;8.90;99.90;;;;;;5071771;28;20048;-80
2022/10/19 05:00:33;;;;;;;6.30;1.73;;;8.90;99.90;;;;;;5075426;28;20045;-79
2022/10/19 05:02:59;;;;;;;4.95;1.77;;;9.00;99.90;;;;;;5076619;28;20044;-83
2022/10/19 05:05:25;;;;;;;6.32;2.10;;;9.00;99.90;;;;;;5042309;28;20093;-82
2022/10/19 05:07:51;;;;;;;7.47;1.70;;;9.00;99.90;;;;;;5076886;28;20045;-83
2022/10/19 05:10:17;;;;;;;4.78;1.50;;;9.10;99.90;;;;;;5058836;28;20294;-82
2022/10/19 05:12:42;;;;;;;6.70;1.60;;;9.00;99.90;;;;;;5076478;28;20047;-82
2022/10/19 05:15:08;;;;;;;5.55;1.92;;;8.90;99.90;;;;;;5076512;28;20055;-82
2022/10/19 05:17:34;;;;;;;5.35;1.55;;;9.00;99.90;;;;;;5076299;28;20040;-82
2022/10/19 05:20:00;;;;;;;6.28;1.88;;;8.90;99.90;;;;;;5076140;28;20048;-81
2022/10/19 05:22:25;;;;;;;3.78;1.67;;;9.00;99.90;;;;;;5058343;28;20127;-84
2022/10/19 05:24:51;;;;;;;5.90;1.80;;;8.90;99.90;;;;;;5075271;28;20033;-82
2022/10/19 05:27:17;;;;;;;4.50;1.85;;;8.90;99.90;;;;;;5075917;28;20051;-82
2022/10/19 05:29:42;;;;;;;15.32;2.70;;;8.90;99.90;;;;;;5075128;28;20044;-81
2022/10/19 05:32:08;;;;;;;5.10;1.40;;;8.90;99.90;;;;;;5075205;28;20048;-82
2022/10/19 05:34:33;;;;;;;8.35;1.95;;;9.30;99.90;;;;;;5075994;28;20051;-79
2022/10/19 05:36:59;;;;;;;7.28;1.88;;;8.90;99.90;;;;;;5078555;28;20513;-81
2022/10/19 05:39:25;;;;;;;3.75;1.92;;;8.80;99.90;;;;;;5060643;28;20037;-83
2022/10/19 05:41:55;;;;;;;3.75;1.40;;;8.80;99.90;;;;;;5074738;28;20071;-86
2022/10/19 05:44:23;;;;;;;2.28;1.58;;;8.80;99.90;;;;;;5058325;28;20064;-84
2022/10/19 05:46:50;;;;;;;4.68;1.90;;;8.70;99.90;;;;;;5074464;28;20044;-85
2022/10/19 05:49:17;;;;;;;;;;;8.80;99.90;;;;;;5076256;28;20063;-84
2022/10/19 05:51:43;;;;;;;5.38;1.70;;;8.70;99.90;;;;;;5075517;28;20356;-84
2022/10/19 05:54:10;;;;;;;3.10;1.67;;;8.70;99.90;;;;;;5075699;28;20178;-83
2022/10/19 05:56:36;;;;;;;7.15;2.28;;;8.80;99.90;;;;;;5075687;28;20052;-86
2022/10/19 05:59:05;;;;;;;5.63;1.90;;;8.70;99.90;;;;;;5074442;28;20044;-83
2022/10/19 06:01:31;;;;;;;6.18;1.60;;;8.60;99.90;;;;;;5074434;28;20080;-82
2022/10/19 06:03:58;;;;;;;3.38;1.40;;;8.60;99.90;;;;;;5074245;28;20102;-84
2022/10/19 06:06:25;;;;;;;2.70;1.63;;;8.60;99.90;;;;;;5074426;28;20476;-86
2022/10/19 06:08:53;;;;;;;6.40;1.60;;;8.50;99.90;;;;;;5075407;28;20098;-85
2022/10/19 06:11:25;;;;;;;6.13;1.77;;;8.80;99.90;;;;;;5057511;28;20115;-83
2022/10/19 06:13:54;;;;;;;5.10;1.63;;;8.50;99.90;;;;;;5074365;28;20041;-85
2022/10/19 06:16:20;;;;;;;5.80;1.67;;;8.40;99.90;;;;;;5074011;28;20118;-84
2022/10/19 06:18:46;;;;;;;11.70;2.60;;;8.50;99.90;;;;;;5073964;28;20099;-81
2022/10/19 06:21:13;;;;;;;6.60;1.85;;;8.40;99.90;;;;;;5074136;28;20478;-79
2022/10/19 06:23:39;;;;;;;6.85;2.03;;;8.40;99.90;;;;;;5073773;28;20052;-81
2022/10/19 06:26:12;;;;;;;4.43;2.03;;;8.40;99.90;;;;;;5075141;28;20036;-82
2022/10/19 06:28:39;;;;;;;5.68;1.90;;;8.40;99.90;;;;;;5074170;28;20082;-86
2022/10/19 06:31:05;;;;;;;8.38;1.98;;;8.40;99.90;;;;;;5074831;28;20044;-84
2022/10/19 06:33:31;;;;;;;5.38;2.15;;;8.40;99.90;;;;;;5075091;28;20174;-82
2022/10/19 06:36:05;;;;;;;3.97;1.65;;;8.40;99.90;;;;;;5074916;28;20040;-83
2022/10/19 06:38:30;;;;;;;4.93;2.03;;;8.40;99.90;;;;;;5080902;28;20047;-82
2022/10/19 06:40:59;;;;;;;6.35;2.03;;;8.50;99.90;;;;;;5074746;28;20044;-81
2022/10/19 06:43:25;;;;;;;7.75;2.20;;;8.50;99.90;;;;;;5056998;28;20396;-85
2022/10/19 06:45:51;;;;;;;18.08;1.90;;;9.20;99.90;;;;;;5072956;28;20056;-83
2022/10/19 06:48:17;;;;;;;11.27;2.05;;;8.50;99.90;;;;;;5074656;28;20049;-83
2022/10/19 06:50:42;;;;;;;9.48;2.63;;;8.50;99.90;;;;;;5073228;28;20124;-80
2022/10/19 06:53:08;;;;;;;6.93;1.77;;;8.60;99.90;;;;;;5074827;28;20468;-82
2022/10/19 06:55:35;;;;;;;7.75;2.17;;;8.70;99.90;;;;;;5073628;28;20133;-84
2022/10/19 06:58:00;;;;;;;10.63;1.88;;;8.70;99.90;;;;;;5073221;28;20041;-84
2022/10/19 07:00:27;;;;;;;13.50;2.08;;;8.70;99.90;;;;;;5074038;28;20446;-83
2022/10/19 07:02:53;;;;;;;4.97;1.92;;;8.60;99.90;;;;;;5074317;28;20044;-79
2022/10/19 07:05:19;;;;;;;10.93;2.13;;;8.80;99.90;;;;;;5074288;28;20080;-81
2022/10/19 07:07:45;;;;;;;10.10;2.63;;;8.90;99.90;;;;;;5074174;28;20036;-84
2022/10/19 07:10:11;;;;;;;10.75;2.10;;;8.90;99.90;;;;;;5073122;28;20123;-81
2022/10/19 07:12:36;;;;;;;8.17;2.03;;;9.20;99.90;;;;;;5074164;28;20089;-81
2022/10/19 07:15:03;;;;;;;8.52;1.80;;;9.00;99.90;;;;;;5074004;28;20049;-81
2022/10/19 07:17:28;;;;;;;7.38;2.17;;;9.10;99.90;;;;;;5073859;28;20036;-81
2022/10/19 07:19:54;;;;;;;9.65;2.80;;;9.30;99.90;;;;;;5073946;28;20044;-80
2022/10/19 07:22:19;;;;;;;16.65;2.58;;;9.30;99.90;;;;;;5073242;28;20378;-80
2022/10/19 07:24:45;;;;;;;13.45;2.58;;;9.40;99.90;;;;;;5073486;28;20044;-81
2022/10/19 07:27:11;;;;;;;10.82;2.67;;;9.50;99.90;;;;;;5073961;28;20095;-80
2022/10/19 07:29:36;;;;;;;10.60;2.85;;;9.60;99.90;;;;;;5072869;28;20043;-82
2022/10/19 07:32:02;;;;;;;7.97;1.90;;;9.70;99.90;;;;;;5072793;28;20046;-81
2022/10/19 07:34:28;;;;;;;15.70;2.75;;;10.00;99.90;;;;;;5074062;28;20126;-83
2022/10/19 07:36:53;;;;;;;7.25;2.13;;;9.80;99.90;;;;;;5073745;28;20049;-86
2022/10/19 07:39:19;;;;;;;12.68;3.13;;;9.90;99.90;;;;;;5072941;28;20056;-81
2022/10/19 07:41:45;;;;;;;8.13;2.65;;;10.60;99.90;;;;;;5073846;28;20095;-83
2022/10/19 07:44:11;;;;;;;12.93;2.45;;;10.00;99.90;;;;;;5072436;28;20041;-83
2022/10/19 07:46:38;;;;;;;11.60;3.03;;;10.10;99.90;;;;;;5072339;28;20044;-81
2022/10/19 07:49:11;;;;;;;11.43;2.53;;;10.20;99.90;;;;;;5052825;28;20417;-83
2022/10/19 07:51:37;;;;;;;7.78;2.55;;;10.30;99.90;;;;;;5052809;28;20041;-83
2022/10/19 07:54:03;;;;;;;8.30;2.50;;;10.40;99.90;;;;;;5072342;28;20076;-81
2022/10/19 07:56:29;;;;;;;10.43;2.85;;;10.40;99.90;;;;;;5073549;28;20087;-84
2022/10/19 07:58:56;;;;;;;12.35;2.65;;;10.40;99.90;;;;;;5071408;28;20043;-79
2022/10/19 08:01:30;;;;;;;10.20;3.05;;;10.60;99.90;;;;;;5073213;28;20404;-83
2022/10/19 08:03:58;;;;;;;7.03;2.10;;;10.70;99.90;;;;;;5071843;28;20446;-84
2022/10/19 08:06:24;;;;;;;13.52;2.42;;;11.10;99.90;;;;;;5056669;28;20044;-82
2022/10/19 08:08:51;;;;;;;9.38;3.30;;;10.50;99.90;;;;;;5072472;28;20520;-86
2022/10/19 08:11:20;;;;;;;10.00;2.08;;;11.00;99.90;;;;;;5072026;28;20040;-83
2022/10/19 08:13:46;;;;;;;8.60;2.28;;;11.00;99.90;;;;;;5053594;28;20053;-80
2022/10/19 08:16:31;;;;;;;10.93;2.70;;;11.10;99.90;;;;;;5072073;28;20120;-81
2022/10/19 08:19:06;;;;;;;8.40;2.10;;;11.10;99.90;;;;;;5070856;28;20125;-79
2022/10/19 08:21:32;;;;;;;9.60;1.88;;;11.20;99.90;;;;;;5071677;28;20055;-79
2022/10/19 08:23:58;;;;;;;5.80;1.88;;;11.40;99.90;;;;;;5073154;28;20127;-82
2022/10/19 08:26:24;;;;;;;10.33;2.10;;;11.30;99.90;;;;;;5071818;28;20048;-83
2022/10/19 08:29:03;;;;;;;10.70;1.55;;;11.40;99.90;;;;;;5070963;28;20373;-83
2022/10/19 08:31:34;;;;;;;14.50;2.30;;;11.50;99.90;;;;;;5071352;28;20041;-84
2022/10/19 08:34:00;;;;;;;9.18;2.20;;;12.20;99.90;;;;;;5075010;28;20048;-81
2022/10/19 08:36:26;;;;;;;12.57;2.22;;;11.60;99.90;;;;;;5077911;28;20052;-80
2022/10/19 08:38:52;;;;;;;5.35;1.77;;;11.70;99.90;;;;;;5075929;28;20041;-80
2022/10/19 08:41:30;;;;;;;8.43;2.45;;;11.70;99.90;;;;;;5078185;28;20377;-80
2022/10/19 08:44:22;;;;;;;6.05;1.67;;;11.70;99.90;;;;;;5077070;28;20059;-79
2022/10/19 08:47:08;;;;;;;5.80;1.83;;;11.80;99.90;;;;;;5074922;28;20061;-81
2022/10/19 08:49:35;;;;;;;7.32;2.03;;;11.90;99.90;;;;;;5076772;28;20060;-80
2022/10/19 08:52:05;;;;;;;7.93;1.67;;;11.90;99.90;;;;;;5073319;28;20167;-78
2022/10/19 08:54:48;;;;;;;6.20;1.90;;;11.90;99.90;;;;;;5069368;28;20495;-81
2022/10/19 08:57:23;;;;;;;8.38;2.00;;;11.80;99.90;;;;;;5074639;28;20048;-80
2022/10/19 08:59:57;;;;;;;10.43;1.85;;;12.00;99.90;;;;;;5075542;28;20393;-82
2022/10/19 09:02:45;;;;;;;6.80;1.45;;;12.00;99.90;;;;;;5074302;28;20036;-80
2022/10/19 09:05:38;;;;;;;7.75;1.55;;;12.10;99.90;;;;;;5075939;28;20044;-82
2022/10/19 09:08:04;;;;;;;5.05;1.92;;;12.20;99.90;;;;;;5075255;28;20094;-81
2022/10/19 09:10:35;;;;;;;8.02;1.67;;;12.20;99.90;;;;;;5076164;28;20435;-80
2022/10/19 09:13:19;;;;;;;6.05;1.38;;;12.00;99.90;;;;;;5075609;28;20053;-79
2022/10/19 09:15:48;;;;;;;5.25;1.30;;;12.30;99.90;;;;;;5075835;28;20048;-80
2022/10/19 09:18:21;;;;;;;7.10;1.77;;;12.70;99.90;;;;;;5075530;28;20389;-82
2022/10/19 09:20:54;;;;;;;5.93;1.58;;;12.40;99.90;;;;;;5075878;28;20391;-82
2022/10/19 09:23:38;;;;;;;7.38;1.60;;;12.10;99.90;;;;;;5074702;28;20181;-80
2022/10/19 09:26:17;;;;;;;8.80;1.90;;;12.50;99.90;;;;;;5075830;28;20048;-79
2022/10/19 09:28:51;;;;;;;4.57;1.20;;;12.60;99.90;;;;;;5075643;28;20041;-79
2022/10/19 09:31:38;;;;;;;6.13;1.40;;;12.60;99.90;;;;;;5075422;28;20056;-79
2022/10/19 09:34:10;;;;;;;5.82;1.58;;;12.70;99.90;;;;;;5075903;28;20052;-81
2022/10/19 09:36:45;;;;;;;7.45;1.70;;;12.70;99.90;;;;;;5074704;28;20048;-80
2022/10/19 09:39:13;;;;;;;4.90;1.83;;;12.70;99.90;;;;;;5075261;28;20377;-82
2022/10/19 09:42:12;;;;;;;7.15;1.80;;;13.20;99.90;;;;;;5073488;28;20044;-83
2022/10/19 09:44:37;;;;;;;6.45;1.50;;;12.80;99.90;;;;;;5061037;28;20087;-81
2022/10/19 09:47:28;;;;;;;9.20;1.90;;;12.80;99.90;;;;;;5072883;28;20053;-83
2022/10/19 09:50:18;;;;;;;6.47;1.80;;;12.80;99.90;;;;;;5057436;28;20052;-82
2022/10/19 09:52:46;;;;;;;6.68;1.80;;;12.80;99.90;;;;;;5075555;28;20468;-80
2022/10/19 09:55:37;;;;;;;5.22;1.40;;;12.80;99.90;;;;;;5074960;28;20511;-83
2022/10/19 09:58:11;;;;;;;3.08;1.00;;;12.80;99.90;;;;;;5073690;28;20041;-82
2022/10/19 10:00:42;;;;;;;6.20;1.55;;;12.80;99.90;;;;;;5075183;28;20106;-83
2022/10/19 10:03:25;;;;;;;7.07;1.65;;;12.80;99.90;;;;;;5091060;28;20480;-80
2022/10/19 10:05:51;;;;;;;5.07;1.60;;;12.90;99.90;;;;;;5074964;28;20040;-83
2022/10/19 10:08:22;;;;;;;10.77;2.08;;;12.90;99.90;;;;;;5074598;28;20040;-81
2022/10/19 10:11:05;;;;;;;5.38;1.58;;;13.30;99.90;;;;;;5074863;28;20046;-82
2022/10/19 10:13:36;;;;;;;6.32;1.45;;;13.00;99.90;;;;;;5075083;28;20040;-77
2022/10/19 10:16:05;;;;;;;6.25;1.50;;;13.10;99.90;;;;;;5083146;28;20045;-83
2022/10/19 10:18:34;;;;;;;8.63;1.60;;;13.10;99.90;;;;;;5073597;28;20040;-80
2022/10/19 10:21:10;;;;;;;4.78;1.48;;;13.10;99.90;;;;;;5074464;28;20131;-85
2022/10/19 10:23:36;;;;;;;7.45;1.48;;;13.20;99.90;;;;;;5073718;28;20056;-85
2022/10/19 10:26:04;;;;;;;5.77;1.93;;;13.10;99.90;;;;;;5073416;28;20392;-84
2022/10/19 10:28:30;;;;;;;5.90;1.42;;;13.40;99.90;;;;;;5073788;28;20036;-88
2022/10/19 10:31:06;;;;;;;4.07;1.15;;;13.20;99.90;;;;;;5073103;28;20085;-87
2022/10/19 10:33:35;;;;;;;8.68;1.77;;;13.20;99.90;;;;;;5056401;28;20056;-84
2022/10/19 10:36:04;;;;;;;7.80;1.75;;;13.20;99.90;;;;;;5073414;28;20102;-84
2022/10/19 10:38:34;;;;;;;6.03;1.30;;;13.70;99.90;;;;;;5056635;28;20036;-83
2022/10/19 10:41:06;;;;;;;4.75;1.60;;;13.20;99.90;;;;;;5073317;28;20048;-85
2022/10/19 10:43:47;;;;;;;6.50;1.60;;;13.30;99.90;;;;;;5057547;28;20435;-83
2022/10/19 10:46:15;;;;;;;5.45;1.50;;;14.00;99.90;;;;;;5075436;28;20060;-84
2022/10/19 10:48:53;;;;;;;5.05;1.25;;;13.30;99.90;;;;;;5074030;28;20036;-86
2022/10/19 10:51:41;;;;;;;7.90;1.63;;;13.30;99.90;;;;;;5057149;28;20102;-83
2022/10/19 10:54:42;;;;;;;7.20;1.73;;;13.40;99.90;;;;;;5074063;28;20493;-82
2022/10/19 10:57:11;;;;;;;4.07;1.35;;;13.40;99.90;;;;;;5057271;28;20402;-77
2022/10/19 10:59:47;;;;;;;5.25;1.52;;;13.40;99.90;;;;;;5074217;28;20071;-78
2022/10/19 11:02:55;;;;;;;7.85;1.98;;;13.50;99.90;;;;;;5074591;28;20146;-80
2022/10/19 11:05:44;;;;;;;6.82;1.60;;;13.50;99.90;;;;;;5074736;28;20458;-78
2022/10/19 11:08:27;;;;;;;5.88;1.65;;;13.50;99.90;;;;;;5074569;28;20036;-81
2022/10/19 11:10:59;;;;;;;5.75;1.55;;;13.50;99.90;;;;;;5073026;28;20055;-82
2022/10/19 11:13:27;;;;;;;8.88;1.83;;;13.60;99.90;;;;;;5074111;28;20090;-83
2022/10/19 11:15:59;;;;;;;6.28;1.40;;;14.00;99.90;;;;;;5074004;28;20052;-79
2022/10/19 11:18:30;;;;;;;3.58;1.17;;;13.90;99.90;;;;;;5074210;28;20044;-82
2022/10/19 11:21:10;;;;;;;6.68;1.65;;;14.00;99.90;;;;;;5074127;28;20045;-80
2022/10/19 11:24:12;;;;;;;6.47;1.70;;;14.10;99.90;;;;;;5072730;28;20534;-80
2022/10/19 11:26:44;;;;;;;8.05;1.52;;;14.00;99.90;;;;;;5074019;28;20044;-82
2022/10/19 11:29:32;;;;;;;7.68;1.50;;;13.70;99.90;;;;;;5073884;28;20066;-79
2022/10/19 11:31:58;;;;;;;6.35;1.60;;;13.90;99.90;;;;;;5072908;28;20044;-79
2022/10/19 11:34:38;;;;;;;7.18;2.20;;;13.80;99.90;;;;;;5073938;28;20045;-79
2022/10/19 11:37:25;;;;;;;4.82;1.77;;;13.70;99.90;;;;;;5074110;28;20075;-80
2022/10/19 11:40:12;;;;;;;2.88;1.42;;;13.70;99.90;;;;;;5073977;28;20044;-79
2022/10/19 11:42:52;;;;;;;6.20;1.30;;;13.90;99.90;;;;;;5073696;28;20044;-82
2022/10/19 11:45:27;;;;;;;5.32;1.45;;;13.60;99.90;;;;;;5075737;28;20135;-83
2022/10/19 11:48:01;;;;;;;7.15;1.77;;;13.80;99.90;;;;;;5074780;28;20099;-82
2022/10/19 11:50:48;;;;;;;9.38;1.83;;;13.70;99.90;;;;;;5073832;28;20045;-80
2022/10/19 11:53:48;;;;;;;5.82;1.70;;;14.00;99.90;;;;;;5072710;28;20048;-80
2022/10/19 11:56:39;;;;;;;6.43;1.67;;;13.90;99.90;;;;;;5061439;28;20056;-80
2022/10/19 11:59:17;;;;;;;5.80;1.50;;;14.10;99.90;;;;;;5072548;28;20564;-80
2022/10/19 12:01:55;;;;;;;6.47;1.65;;;14.30;99.90;;;;;;5073599;28;20040;-81
2022/10/19 12:04:56;;;;;;;;;;;14.50;99.90;;;;;;5072814;28;20396;-81
2022/10/19 12:07:40;;;;;;;6.75;2.08;;;14.40;99.90;;;;;;5011484;28;19927;-82
2022/10/19 12:10:26;;;;;;;9.13;2.92;;;14.30;99.90;;;;;;5069938;28;20056;-81
2022/10/19 12:13:00;;;;;;;6.55;1.70;;;14.20;99.90;;;;;;5077989;28;20076;-83
2022/10/19 12:15:42;;;;;;;6.78;2.33;;;14.30;99.90;;;;;;5077376;28;20106;-82
2022/10/19 12:18:33;;;;;;;8.48;2.40;;;14.20;99.90;;;;;;5077338;28;20037;-78
2022/10/19 12:21:03;;;;;;;7.72;2.38;;;14.20;99.90;;;;;;5077008;28;20045;-80
2022/10/19 12:23:35;;;;;;;6.07;1.92;;;14.10;99.90;;;;;;5074753;28;20043;-80
2022/10/19 12:26:07;;;;;;;6.05;2.13;;;14.50;99.90;;;;;;5075318;28;20048;-80
2022/10/19 12:28:40;;;;;;;8.85;2.10;;;14.40;99.90;;;;;;5075719;28;20068;-78
2022/10/19 12:31:06;;;;;;;5.68;1.90;;;14.20;99.90;;;;;;5074348;28;20041;-80
2022/10/19 12:33:35;;;;;;;5.15;1.70;;;13.90;99.90;;;;;;5075454;28;20488;-80
2022/10/19 12:36:24;;;;;;;6.30;1.85;;;14.10;99.90;;;;;;5076502;28;20137;-79
2022/10/19 12:38:56;;;;;;;4.93;1.85;;;14.00;99.90;;;;;;5074561;28;20040;-79
2022/10/19 12:41:29;;;;;;;7.43;2.10;;;14.00;99.90;;;;;;5076157;28;20499;-78
2022/10/19 12:44:12;;;;;;;7.80;2.47;;;14.00;99.90;;;;;;5076577;28;20040;-79
2022/10/19 12:46:43;;;;;;;8.48;3.08;;;14.00;99.90;;;;;;5074683;28;20476;-81
2022/10/19 12:49:27;;;;;;;5.68;2.20;;;14.10;99.90;;;;;;5074105;28;20044;-78
2022/10/19 12:51:55;;;;;;;7.35;2.08;;;14.10;99.90;;;;;;5074958;28;20094;-78
2022/10/19 12:54:30;;;;;;;7.53;2.00;;;14.10;99.90;;;;;;5075074;28;20071;-80
2022/10/19 12:56:58;;;;;;;4.88;1.95;;;14.20;99.90;;;;;;5076213;28;20051;-79
2022/10/19 12:59:33;;;;;;;8.10;2.20;;;14.10;99.90;;;;;;5076105;28;20080;-83
2022/10/19 13:02:01;;;;;;;5.38;1.88;;;14.10;99.90;;;;;;5075204;28;20046;-78
2022/10/19 13:04:30;;;;;;;6.38;2.15;;;14.10;99.90;;;;;;5076561;28;20045;-79
2022/10/19 13:06:56;;;;;;;6.22;1.70;;;14.10;99.90;;;;;;5076989;28;20397;-83
2022/10/19 13:09:23;;;;;;;6.20;2.13;;;13.90;99.90;;;;;;5076523;28;20051;-78
2022/10/19 13:12:22;;;;;;;8.18;2.20;;;14.10;99.90;;;;;;5076422;28;20105;-80
2022/10/19 13:14:50;;;;;;;7.97;2.22;;;14.10;99.90;;;;;;5076207;28;20040;-76